createdAt,value
2022-10-12T00:01:17.852Z,15.97
2022-10-12T00:03:46.400Z,15.53
2022-10-12T00:06:18.697Z,13.60
2022-10-12T00:08:47.845Z,15.10
2022-10-12T00:11:18.364Z,14.87
2022-10-12T00:13:46.933Z,18.97
2022-10-12T00:16:18.113Z,25.70
2022-10-12T00:18:46.857Z,13.43
2022-10-12T00:21:18.126Z,28.83
2022-10-12T00:23:47.847Z,14.30
2022-10-12T00:26:19.822Z,18.07
2022-10-12T00:28:49.467Z,15.80
2022-10-12T00:31:19.978Z,24.50
2022-10-12T00:33:49.736Z,18.83
2022-10-12T00:36:21.730Z,14.87
2022-10-12T00:38:51.411Z,35.23
2022-10-12T00:41:23.294Z,28.53
2022-10-12T00:43:56.986Z,23.40
2022-10-12T00:46:31.776Z,17.80
2022-10-12T00:49:10.434Z,21.43
2022-10-12T00:51:42.977Z,17.77
2022-10-12T00:54:15.202Z,11.80
2022-10-12T00:56:47.181Z,11.80
2022-10-12T00:59:20.842Z,15.13
2022-10-12T01:01:49.667Z,13.20
2022-10-12T01:04:18.370Z,15.13
2022-10-12T01:06:48.268Z,13.30
2022-10-12T01:09:16.944Z,17.27
2022-10-12T01:11:45.463Z,17.20
2022-10-12T01:14:14.246Z,16.83
2022-10-12T01:16:49.004Z,15.87
2022-10-12T01:19:37.572Z,19.70
2022-10-12T01:22:10.494Z,14.90
2022-10-12T01:24:50.917Z,14.33
2022-10-12T01:27:37.502Z,27.50
2022-10-12T01:30:17.674Z,20.57
2022-10-12T01:33:06.895Z,19.83
2022-10-12T01:35:40.867Z,21.43
2022-10-12T01:38:19.646Z,21.13
2022-10-12T01:40:56.930Z,17.40
2022-10-12T01:43:33.655Z,24.27
2022-10-12T01:46:08.487Z,11.00
2022-10-12T01:48:37.071Z,18.07
2022-10-12T01:51:05.918Z,15.23
2022-10-12T01:53:42.387Z,13.87
2022-10-12T01:56:19.366Z,7.90
2022-10-12T01:58:58.232Z,12.57
2022-10-12T02:01:36.890Z,20.70
2022-10-12T02:04:13.077Z,15.53
2022-10-12T02:06:48.620Z,19.73
2022-10-12T02:09:22.945Z,16.47
2022-10-12T02:11:53.568Z,17.23
2022-10-12T02:14:25.098Z,15.43
2022-10-12T02:16:57.581Z,18.33
2022-10-12T02:19:28.309Z,11.83
2022-10-12T02:22:00.813Z,18.17
2022-10-12T02:24:32.956Z,14.77
2022-10-12T02:27:06.072Z,22.57
2022-10-12T02:29:40.045Z,22.50
2022-10-12T02:32:18.496Z,16.53
2022-10-12T02:34:52.357Z,10.33
2022-10-12T02:37:32.009Z,13.67
2022-10-12T02:40:11.604Z,18.60
2022-10-12T02:43:08.897Z,10.40
2022-10-12T02:45:36.114Z,16.03
2022-10-12T02:48:07.336Z,13.23
2022-10-12T02:50:37.130Z,22.47
2022-10-12T02:53:06.999Z,14.30
2022-10-12T02:55:39.801Z,11.23
2022-10-12T02:58:08.404Z,16.63
2022-10-12T03:00:37.065Z,19.30
2022-10-12T03:03:07.176Z,13.63
2022-10-12T03:05:35.711Z,28.97
2022-10-12T03:08:04.701Z,17.07
2022-10-12T03:10:33.193Z,19.77
2022-10-12T03:13:01.766Z,18.43
2022-10-12T03:15:30.271Z,16.80
2022-10-12T03:17:58.787Z,11.87
2022-10-12T03:20:31.073Z,14.23
2022-10-12T03:22:59.708Z,19.30
2022-10-12T03:25:28.261Z,18.13
2022-10-12T03:27:56.766Z,19.30
2022-10-12T03:30:25.291Z,9.57
2022-10-12T03:32:53.924Z,17.67
2022-10-12T03:35:23.662Z,16.00
2022-10-12T03:37:53.615Z,21.70
2022-10-12T03:40:22.151Z,14.50
2022-10-12T03:42:50.670Z,16.47
2022-10-12T03:45:19.246Z,14.53
2022-10-12T03:47:48.155Z,14.97
2022-10-12T03:50:16.702Z,18.40
2022-10-12T03:52:45.438Z,16.60
2022-10-12T03:55:15.583Z,16.77
2022-10-12T03:57:44.641Z,24.93
2022-10-12T04:00:14.553Z,17.63
2022-10-12T04:02:43.309Z,17.33
2022-10-12T04:05:11.825Z,11.90
2022-10-12T04:07:40.668Z,23.33
2022-10-12T04:10:10.182Z,14.43
2022-10-12T04:12:40.043Z,9.80
2022-10-12T04:15:10.081Z,15.90
2022-10-12T04:17:39.291Z,29.27
2022-10-12T04:20:09.083Z,14.60
2022-10-12T04:22:37.649Z,26.93
2022-10-12T04:25:06.822Z,13.33
2022-10-12T04:27:35.503Z,22.43
2022-10-12T04:30:06.265Z,18.47
2022-10-12T04:32:34.808Z,13.50
2022-10-12T04:35:03.426Z,13.80
2022-10-12T04:37:32.048Z,14.50
2022-10-12T04:40:00.665Z,15.30
2022-10-12T04:42:29.234Z,11.30
2022-10-12T04:44:57.848Z,15.43
2022-10-12T04:47:28.214Z,20.90
2022-10-12T04:49:56.842Z,12.80
2022-10-12T04:52:25.437Z,17.30
2022-10-12T04:54:53.977Z,13.00
2022-10-12T04:57:22.582Z,29.23
2022-10-12T04:59:51.571Z,17.10
2022-10-12T05:02:20.055Z,19.67
2022-10-12T05:04:50.031Z,19.80
2022-10-12T05:07:18.591Z,12.47
2022-10-12T05:09:47.082Z,22.50
2022-10-12T05:12:15.545Z,17.43
2022-10-12T05:14:44.277Z,19.80
2022-10-12T05:17:12.784Z,30.20
2022-10-12T05:19:41.321Z,31.63
2022-10-12T05:22:11.353Z,74.33
2022-10-12T05:24:39.867Z,55.03
2022-10-12T05:27:11.880Z,18.83
2022-10-12T05:29:40.420Z,22.50
2022-10-12T05:32:08.929Z,37.43
2022-10-12T05:34:38.764Z,22.57
2022-10-12T05:37:07.251Z,35.20
2022-10-12T05:39:37.524Z,24.63
2022-10-12T05:42:06.392Z,32.60
2022-10-12T05:44:34.959Z,22.70
2022-10-12T05:47:03.482Z,43.57
2022-10-12T05:49:32.075Z,21.50
2022-10-12T05:52:00.550Z,25.13
2022-10-12T05:54:29.107Z,26.67
2022-10-12T05:56:59.073Z,21.97
2022-10-12T05:59:27.669Z,46.60
2022-10-12T06:01:56.247Z,33.37
2022-10-12T06:04:24.995Z,37.57
2022-10-12T06:06:53.679Z,23.00
2022-10-12T06:09:22.402Z,31.37
2022-10-12T06:11:50.973Z,21.60
2022-10-12T06:14:20.802Z,22.10
2022-10-12T06:16:53.729Z,15.30
2022-10-12T06:19:23.173Z,20.07
2022-10-12T06:21:51.695Z,28.17
2022-10-12T06:24:20.253Z,25.40
2022-10-12T06:26:48.873Z,16.80
2022-10-12T06:29:17.632Z,18.20
2022-10-12T06:31:51.468Z,29.73
2022-10-12T06:34:20.588Z,16.60
2022-10-12T06:36:49.656Z,19.73
2022-10-12T06:39:18.232Z,17.63
2022-10-12T06:41:46.865Z,21.73
2022-10-12T06:44:15.396Z,16.53
2022-10-12T06:46:43.991Z,22.00
2022-10-12T06:49:14.234Z,21.10
2022-10-12T06:51:43.041Z,17.20
2022-10-12T06:54:12.202Z,25.60
2022-10-12T06:56:47.492Z,14.70
2022-10-12T06:59:16.605Z,22.40
2022-10-12T07:01:51.216Z,16.30
2022-10-12T07:04:24.585Z,20.80
2022-10-12T07:07:12.675Z,19.70
2022-10-12T07:09:58.804Z,13.03
2022-10-12T07:12:28.680Z,13.10
2022-10-12T07:15:00.438Z,14.40
2022-10-12T07:17:34.578Z,16.30
2022-10-12T07:20:07.970Z,16.33
2022-10-12T07:22:37.041Z,15.03
2022-10-12T07:25:09.347Z,19.33
2022-10-12T07:27:38.943Z,17.53
2022-10-12T07:30:13.693Z,18.67
2022-10-12T07:32:42.637Z,18.43
2022-10-12T07:35:13.328Z,16.73
2022-10-12T07:37:53.670Z,25.87
2022-10-12T07:40:26.530Z,15.77
2022-10-12T07:45:46.391Z,21.40
2022-10-12T07:48:15.079Z,15.03
2022-10-12T07:51:06.205Z,14.40
2022-10-12T07:53:36.231Z,18.10
2022-10-12T07:56:09.690Z,25.73
2022-10-12T07:58:38.320Z,28.33
2022-10-12T08:01:08.015Z,19.43
2022-10-12T08:03:37.318Z,21.37
2022-10-12T08:06:13.724Z,19.70
2022-10-12T08:08:43.448Z,9.13
2022-10-12T08:11:16.085Z,15.17
2022-10-12T08:13:45.710Z,19.17
2022-10-12T08:16:16.161Z,16.87
2022-10-12T08:18:44.901Z,19.30
2022-10-12T08:21:19.405Z,17.47
2022-10-12T08:23:48.799Z,18.57
2022-10-12T08:26:20.309Z,16.07
2022-10-12T08:28:51.432Z,26.00
2022-10-12T08:31:28.902Z,14.33
2022-10-12T08:34:02.737Z,16.40
2022-10-12T08:36:40.096Z,32.10
2022-10-12T08:39:11.446Z,13.53
2022-10-12T08:41:59.660Z,14.57
2022-10-12T08:44:54.084Z,13.90
2022-10-12T08:47:34.815Z,14.73
2022-10-12T08:50:05.261Z,13.53
2022-10-12T08:52:39.441Z,12.80
2022-10-12T08:55:20.612Z,19.20
2022-10-12T08:57:50.199Z,20.23
2022-10-12T09:00:19.693Z,15.30
2022-10-12T09:02:57.444Z,15.30
2022-10-12T09:05:32.961Z,12.33
2022-10-12T09:08:08.270Z,11.83
2022-10-12T09:10:47.622Z,21.83
2022-10-12T09:13:28.079Z,20.33
2022-10-12T09:16:01.179Z,9.43
2022-10-12T09:18:40.600Z,18.97
2022-10-12T09:21:14.924Z,16.57
2022-10-12T09:23:45.242Z,41.53
2022-10-12T09:26:18.083Z,13.83
2022-10-12T09:28:49.994Z,7.40
2022-10-12T09:31:36.034Z,16.60
2022-10-12T09:34:07.589Z,14.03
2022-10-12T09:36:38.459Z,13.50
2022-10-12T09:39:16.704Z,16.50
2022-10-12T09:41:47.502Z,23.67
2022-10-12T09:44:27.328Z,11.37
2022-10-12T09:47:13.723Z,8.90
2022-10-12T09:49:43.591Z,15.43
2022-10-12T09:52:13.912Z,8.30
2022-10-12T09:54:49.388Z,9.53
2022-10-12T09:57:23.858Z,12.50
2022-10-12T09:59:52.863Z,13.10
2022-10-12T10:02:22.594Z,19.27
2022-10-12T10:04:52.660Z,11.07
2022-10-12T10:07:25.099Z,21.70
2022-10-12T10:10:15.808Z,10.47
2022-10-12T10:12:50.867Z,10.67
2022-10-12T10:15:25.946Z,12.13
2022-10-12T10:17:56.548Z,13.47
2022-10-12T10:20:35.179Z,10.60
2022-10-12T10:23:06.047Z,10.07
2022-10-12T10:25:36.644Z,6.67
2022-10-12T10:28:20.630Z,9.13
2022-10-12T10:31:00.079Z,6.40
2022-10-12T10:33:28.805Z,8.50
2022-10-12T10:36:10.026Z,7.30
2022-10-12T10:38:56.197Z,5.90
2022-10-12T10:41:29.260Z,5.13
2022-10-12T10:43:58.016Z,10.70
2022-10-12T10:46:30.751Z,8.00
2022-10-12T10:49:06.585Z,6.97
2022-10-12T10:51:44.356Z,9.13
2022-10-12T10:54:18.320Z,7.30
2022-10-12T10:56:50.426Z,9.10
2022-10-12T10:59:28.078Z,5.30
2022-10-12T11:02:01.050Z,8.20
2022-10-12T11:04:33.965Z,16.53
2022-10-12T11:07:06.269Z,15.83
2022-10-12T11:09:42.261Z,14.23
2022-10-12T11:12:17.334Z,9.23
2022-10-12T11:14:48.029Z,8.40
2022-10-12T11:17:22.945Z,17.97
2022-10-12T11:19:54.252Z,7.77
2022-10-12T11:22:28.573Z,10.37
2022-10-12T11:25:04.172Z,10.63
2022-10-12T11:27:39.621Z,7.00
2022-10-12T11:30:15.119Z,9.17
2022-10-12T11:32:46.444Z,8.73
2022-10-12T11:35:18.060Z,10.90
2022-10-12T11:37:51.296Z,8.23
2022-10-12T11:40:47.787Z,9.63
2022-10-12T11:43:25.339Z,7.20
2022-10-12T11:45:57.160Z,12.07
2022-10-12T11:48:30.628Z,6.00
2022-10-12T11:51:04.026Z,14.10
2022-10-12T11:53:42.203Z,8.93
2022-10-12T11:56:19.418Z,7.07
2022-10-12T11:59:01.527Z,10.40
2022-10-12T12:01:46.648Z,9.00
2022-10-12T12:04:42.221Z,9.40
2022-10-12T12:07:40.443Z,6.37
2022-10-12T12:10:42.507Z,12.47
2022-10-12T12:13:21.775Z,8.80
2022-10-12T12:16:24.328Z,10.10
2022-10-12T12:19:30.250Z,15.17
2022-10-12T12:22:24.973Z,9.30
2022-10-12T12:24:57.362Z,11.70
2022-10-12T12:27:36.185Z,8.03
2022-10-12T12:30:21.780Z,8.03
2022-10-12T12:32:54.881Z,11.77
2022-10-12T12:35:31.293Z,8.00
2022-10-12T12:38:20.423Z,9.23
2022-10-12T12:41:10.407Z,7.40
2022-10-12T12:43:56.198Z,12.60
2022-10-12T12:46:41.119Z,10.13
2022-10-12T12:49:30.051Z,7.20
2022-10-12T12:51:59.881Z,9.70
2022-10-12T12:54:29.641Z,16.77
2022-10-12T12:57:44.982Z,10.17
2022-10-12T13:00:19.245Z,15.83
2022-10-12T13:03:21.464Z,10.03
2022-10-12T13:06:23.819Z,11.20
2022-10-12T13:09:16.593Z,8.67
2022-10-12T13:12:03.547Z,15.53
2022-10-12T13:15:03.345Z,18.53
2022-10-12T13:17:48.489Z,7.10
2022-10-12T13:20:21.297Z,7.70
2022-10-12T13:23:01.694Z,17.37
2022-10-12T13:25:44.931Z,13.53
2022-10-12T13:28:34.497Z,7.00
2022-10-12T13:31:07.417Z,9.80
2022-10-12T13:33:39.173Z,9.43
2022-10-12T13:36:10.291Z,8.90
2022-10-12T13:38:39.267Z,15.73
2022-10-12T13:41:12.282Z,7.37
2022-10-12T13:43:46.913Z,19.00
2022-10-12T13:46:35.868Z,7.77
2022-10-12T13:49:12.772Z,13.00
2022-10-12T13:51:41.464Z,16.57
2022-10-12T13:54:20.924Z,17.17
2022-10-12T13:56:54.404Z,4.50
2022-10-12T13:59:25.666Z,17.53
2022-10-12T14:02:00.976Z,5.83
2022-10-12T14:04:31.159Z,9.90
2022-10-12T14:07:02.726Z,6.50
2022-10-12T14:09:40.397Z,11.13
2022-10-12T14:12:11.460Z,13.87
2022-10-12T14:14:41.874Z,6.27
2022-10-12T14:17:16.038Z,13.20
2022-10-12T14:19:47.895Z,8.63
2022-10-12T14:22:24.646Z,13.73
2022-10-12T14:25:07.089Z,15.20
2022-10-12T14:27:40.618Z,13.80
2022-10-12T14:30:19.588Z,13.87
2022-10-12T14:32:49.155Z,9.33
2022-10-12T14:35:29.062Z,10.80
2022-10-12T14:37:58.105Z,7.30
2022-10-12T14:40:34.307Z,11.57
2022-10-12T14:43:09.468Z,9.93
2022-10-12T14:45:38.429Z,7.50
2022-10-12T14:48:12.901Z,12.97
2022-10-12T14:50:41.603Z,7.77
2022-10-12T14:53:13.569Z,8.10
2022-10-12T14:55:42.833Z,10.13
2022-10-12T14:58:16.913Z,7.50
2022-10-12T15:00:46.080Z,7.73
2022-10-12T15:03:14.830Z,10.70
2022-10-12T15:05:43.369Z,7.00
2022-10-12T15:08:11.902Z,15.10
2022-10-12T15:10:40.437Z,7.73
2022-10-12T15:13:10.356Z,13.77
2022-10-12T15:15:42.633Z,6.77
2022-10-12T15:18:11.517Z,5.83
2022-10-12T15:20:43.157Z,6.00
2022-10-12T15:23:14.491Z,10.60
2022-10-12T15:25:50.598Z,6.67
2022-10-12T15:28:19.553Z,8.87
2022-10-12T15:31:16.093Z,15.43
2022-10-12T15:33:38.737Z,33.30
2022-10-12T15:36:07.764Z,17.07
2022-10-12T15:38:36.743Z,11.40
2022-10-12T15:41:05.870Z,7.07
2022-10-12T15:43:36.834Z,8.93
2022-10-12T15:46:11.902Z,8.80
2022-10-12T15:48:40.858Z,9.93
2022-10-12T15:51:14.417Z,6.43
2022-10-12T15:53:44.929Z,13.87
2022-10-12T15:56:15.681Z,41.10
2022-10-12T15:58:44.423Z,12.80
2022-10-12T16:01:15.383Z,7.57
2022-10-12T16:03:44.408Z,11.97
2022-10-12T16:06:13.111Z,7.83
2022-10-12T16:08:42.186Z,9.33
2022-10-12T16:11:12.987Z,7.70
2022-10-12T16:13:47.972Z,13.10
2022-10-12T16:16:21.237Z,9.23
2022-10-12T16:18:49.853Z,10.57
2022-10-12T16:21:18.436Z,16.03
2022-10-12T16:23:47.134Z,12.87
2022-10-12T16:26:19.162Z,9.50
2022-10-12T16:28:58.689Z,5.93
2022-10-12T16:31:28.925Z,12.50
2022-10-12T16:33:58.589Z,11.13
2022-10-12T16:36:27.252Z,12.83
2022-10-12T16:38:56.636Z,14.00
2022-10-12T16:41:59.969Z,8.90
2022-10-12T16:44:59.030Z,15.03
2022-10-12T16:47:31.887Z,15.63
2022-10-12T16:50:07.155Z,12.17
2022-10-12T16:52:36.252Z,6.47
2022-10-12T16:55:06.284Z,9.23
2022-10-12T16:57:56.858Z,7.70
2022-10-12T17:00:36.048Z,13.73
2022-10-12T17:03:35.568Z,12.07
2022-10-12T17:06:05.582Z,15.43
2022-10-12T17:08:35.763Z,12.60
2022-10-12T17:11:08.546Z,16.23
2022-10-12T17:14:12.944Z,9.70
2022-10-12T17:17:00.521Z,13.43
2022-10-12T17:19:46.763Z,20.27
2022-10-12T17:22:16.906Z,11.00
2022-10-12T17:24:46.007Z,8.90
2022-10-12T17:27:16.473Z,13.83
2022-10-12T17:29:45.292Z,24.80
2022-10-12T17:32:14.391Z,11.07
2022-10-12T17:34:45.735Z,14.70
2022-10-12T17:37:15.047Z,20.60
2022-10-12T17:39:45.637Z,14.30
2022-10-12T17:42:15.151Z,20.93
2022-10-12T17:44:44.243Z,12.30
2022-10-12T17:47:12.901Z,19.57
2022-10-12T17:49:41.487Z,12.53
2022-10-12T17:52:11.588Z,14.20
2022-10-12T17:54:40.301Z,26.50
2022-10-12T17:57:08.969Z,13.80
2022-10-12T17:59:37.630Z,14.70
2022-10-12T18:02:09.485Z,18.07
2022-10-12T18:04:38.567Z,12.23
2022-10-12T18:07:07.347Z,14.00
2022-10-12T18:09:37.502Z,24.80
2022-10-12T18:12:06.501Z,20.50
2022-10-12T18:14:35.268Z,23.43
2022-10-12T18:17:03.832Z,32.07
2022-10-12T18:19:32.647Z,32.40
2022-10-12T18:22:01.418Z,25.70
2022-10-12T18:24:30.076Z,23.63
2022-10-12T18:27:00.339Z,25.60
2022-10-12T18:29:29.096Z,29.03
2022-10-12T18:31:57.948Z,26.43
2022-10-12T18:34:26.719Z,25.17
2022-10-12T18:36:55.355Z,27.77
2022-10-12T18:39:26.400Z,20.33
2022-10-12T18:41:55.145Z,16.87
2022-10-12T18:44:26.029Z,16.83
2022-10-12T18:46:56.608Z,31.17
2022-10-12T18:52:17.425Z,18.90
2022-10-12T18:54:47.596Z,20.67
2022-10-12T18:57:16.162Z,24.80
2022-10-12T18:59:46.416Z,18.87
2022-10-12T19:02:17.337Z,22.53
2022-10-12T19:04:46.284Z,25.10
2022-10-12T19:07:15.245Z,25.47
2022-10-12T19:09:43.932Z,45.17
2022-10-12T19:12:12.997Z,30.93
2022-10-12T19:14:42.409Z,31.93
2022-10-12T19:17:12.803Z,21.90
2022-10-12T19:19:41.770Z,23.17
2022-10-12T19:22:10.708Z,19.80
2022-10-12T19:24:39.269Z,36.03
2022-10-12T19:27:07.975Z,24.27
2022-10-12T19:29:36.846Z,18.97
2022-10-12T19:32:06.603Z,28.70
2022-10-12T19:34:36.657Z,21.93
2022-10-12T19:37:05.415Z,22.43
2022-10-12T19:39:33.989Z,41.73
2022-10-12T19:42:02.847Z,27.70
2022-10-12T19:44:31.602Z,33.37
2022-10-12T19:47:01.205Z,23.07
2022-10-12T19:49:34.386Z,30.80
2022-10-12T19:52:06.597Z,27.30
2022-10-12T19:54:36.317Z,24.77
2022-10-12T19:57:05.088Z,25.60
2022-10-12T19:59:34.022Z,29.17
2022-10-12T20:02:02.721Z,25.83
2022-10-12T20:04:31.356Z,30.43
2022-10-12T20:07:00.005Z,30.13
2022-10-12T20:09:30.826Z,31.27
2022-10-12T20:11:59.649Z,32.60
2022-10-12T20:14:29.951Z,28.63
2022-10-12T20:16:58.728Z,29.97
2022-10-12T20:19:27.448Z,37.13
2022-10-12T20:21:56.298Z,22.77
2022-10-12T20:24:27.112Z,39.03
2022-10-12T20:26:57.279Z,24.00
2022-10-12T20:29:25.928Z,30.90
2022-10-12T20:31:54.543Z,26.80
2022-10-12T20:34:23.722Z,25.83
2022-10-12T20:36:52.474Z,30.83
2022-10-12T20:39:21.185Z,23.77
2022-10-12T20:41:49.775Z,26.70
2022-10-12T20:44:24.704Z,45.60
2022-10-12T20:49:41.662Z,35.23
2022-10-12T20:52:10.227Z,26.40
2022-10-12T20:54:39.089Z,23.07
2022-10-12T20:57:07.631Z,23.03
2022-10-12T20:59:38.373Z,29.33
2022-10-12T21:02:06.812Z,36.33
2022-10-12T21:04:38.438Z,31.90
2022-10-12T21:07:07.114Z,34.67
2022-10-12T21:09:35.703Z,25.90
2022-10-12T21:12:04.195Z,27.27
2022-10-12T21:14:33.000Z,45.00
2022-10-12T21:17:02.949Z,31.20
2022-10-12T21:19:31.561Z,23.00
2022-10-12T21:22:00.078Z,36.03
2022-10-12T21:24:28.553Z,26.33
2022-10-12T21:26:57.201Z,38.67
2022-10-12T21:29:26.261Z,39.07
2022-10-12T21:31:54.887Z,26.20
2022-10-12T21:34:24.837Z,25.00
2022-10-12T21:36:53.606Z,34.80
2022-10-12T21:39:22.060Z,33.70
2022-10-12T21:41:50.535Z,29.50
2022-10-12T21:44:19.360Z,31.03
2022-10-12T21:46:48.658Z,38.83
2022-10-12T21:49:17.112Z,30.80
2022-10-12T21:51:46.943Z,27.90
2022-10-12T21:54:15.368Z,21.80
2022-10-12T21:56:43.830Z,23.70
2022-10-12T21:59:12.315Z,36.30
2022-10-12T22:01:41.795Z,30.63
2022-10-12T22:04:14.348Z,37.03
2022-10-12T22:06:43.448Z,28.97
2022-10-12T22:09:16.793Z,27.63
2022-10-12T22:11:45.753Z,29.90
2022-10-12T22:14:16.234Z,26.13
2022-10-12T22:16:45.231Z,27.63
2022-10-12T22:19:18.962Z,37.20
2022-10-12T22:21:48.144Z,25.50
2022-10-12T22:24:18.015Z,34.27
2022-10-12T22:26:46.512Z,33.80
2022-10-12T22:29:15.017Z,27.00
2022-10-12T22:31:44.558Z,25.87
2022-10-12T22:34:13.039Z,28.60
2022-10-12T22:36:43.537Z,26.37
2022-10-12T22:39:11.981Z,25.20
2022-10-12T22:41:41.833Z,41.00
2022-10-12T22:44:10.427Z,25.63
2022-10-12T22:46:38.914Z,26.93
2022-10-12T22:49:07.377Z,27.30
2022-10-12T22:51:39.036Z,25.13
2022-10-12T22:54:08.409Z,26.57
2022-10-12T22:56:37.205Z,27.73
2022-10-12T22:59:07.578Z,34.70
2022-10-12T23:01:36.716Z,28.70
2022-10-12T23:04:05.299Z,26.80
2022-10-12T23:06:33.784Z,26.13
2022-10-12T23:09:02.274Z,21.17
2022-10-12T23:11:31.478Z,27.63
2022-10-12T23:14:00.397Z,22.90
2022-10-12T23:16:32.581Z,24.40
2022-10-12T23:19:02.429Z,24.17
2022-10-12T23:21:32.597Z,29.50
2022-10-12T23:24:02.209Z,29.60
2022-10-12T23:26:31.445Z,29.53
2022-10-12T23:29:00.272Z,35.47
2022-10-12T23:31:30.959Z,26.80
2022-10-12T23:34:00.220Z,26.50
2022-10-12T23:36:29.108Z,26.57
2022-10-12T23:39:00.023Z,24.13
2022-10-12T23:41:28.556Z,22.47
2022-10-12T23:43:57.010Z,25.63
2022-10-12T23:46:25.535Z,26.17
2022-10-12T23:48:55.264Z,28.60
2022-10-12T23:51:23.781Z,25.07
2022-10-12T23:53:52.273Z,23.43
2022-10-12T23:56:20.690Z,22.30
2022-10-12T23:58:49.103Z,29.17
